Time;durP1;ratioP1;P1;durP2;ratioP2;P2;SDS_P1;SDS_P2;PMS_P1;PMS_P2;Temp;Humidity;BMP_temperature;BMP_pressure;BME280_temperature;BME280_humidity;BME280_pressure;Samples;Min_cycle;Max_cycle;Signal;HPM_P1;HPM_P2
2021/10/02 00:31:38;;;;;;;150.23;42.37;;;;;;;12.55;73.50;101206.53;5108136;28;20474;-67
2021/10/02 00:34:25;;;;;;;145.50;39.97;;;;;;;12.76;73.91;101239.22;5103311;28;20415;-67
2021/10/02 00:45:28;;;;;;;144.87;39.10;;;;;;;12.88;74.15;101235.69;5108130;28;20670;-68
2021/10/02 00:47:57;;;;;;;144.57;39.47;;;;;;;12.94;74.22;101237.94;5108675;28;20531;-68
2021/10/02 00:50:26;;;;;;;155.30;40.13;;;;;;;12.92;74.34;101233.63;5107694;28;20452;-68
2021/10/02 00:52:55;;;;;;;128.97;37.77;;;;;;;12.59;73.69;101161.38;5108024;28;20471;-68
2021/10/02 00:55:23;;;;;;;150.17;39.37;;;;;;;13.06;73.94;101236.22;5108488;28;20248;-67
2021/10/02 00:57:51;;;;;;;151.47;38.43;;;;;;;13.13;73.38;101237.50;5108155;28;20750;-68
2021/10/02 01:00:21;;;;;;;162.47;48.33;;;;;;;13.13;73.44;101231.25;5095210;28;20453;-66
2021/10/02 01:02:54;;;;;;;155.63;44.70;;;;;;;13.06;73.73;101233.53;5103766;28;20484;-66
2021/10/02 01:05:46;;;;;;;160.57;48.87;;;;;;;13.09;73.75;101235.13;5103021;28;20452;-68
2021/10/02 01:08:29;;;;;;;158.70;45.17;;;;;;;13.11;74.04;101230.50;5100927;28;20464;-68
2021/10/02 01:11:13;;;;;;;156.83;41.63;;;;;;;13.10;73.74;101240.41;5115129;28;20799;-66
2021/10/02 01:13:53;;;;;;;154.73;46.20;;;;;;;13.14;73.21;101230.28;5101229;28;20681;-66
2021/10/02 01:16:26;;;;;;;153.33;46.77;;;;;;;13.11;73.51;101228.66;5102749;28;20456;-66
2021/10/02 01:19:00;;;;;;;146.03;43.37;;;;;;;13.08;73.45;101220.78;5111879;28;20451;-64
2021/10/02 01:21:48;;;;;;;157.17;41.87;;;;;;;13.15;73.06;101222.06;5126906;27;20486;-66
2021/10/02 01:24:40;;;;;;;146.63;42.13;;;;;;;13.15;73.13;101221.22;5105194;28;20435;-66
2021/10/02 01:27:23;;;;;;;156.20;44.53;;;;;;;13.10;73.11;101218.84;5100119;28;20455;-66
2021/10/02 01:29:54;;;;;;;159.93;48.07;;;;;;;13.14;73.31;101212.25;5104834;28;20465;-66
2021/10/02 01:32:30;;;;;;;161.50;48.17;;;;;;;13.10;72.72;101212.59;5114067;28;20978;-66
2021/10/02 01:35:08;;;;;;;162.83;47.23;;;;;;;13.14;72.77;101223.03;5111619;28;20545;-66
2021/10/02 01:37:57;;;;;;;156.73;41.07;;;;;;;13.11;72.89;101223.25;5103225;28;20455;-66
2021/10/02 01:48:50;;;;;;;150.57;38.93;;;;;;;13.18;72.30;101216.53;5111943;27;20447;-68
2021/10/02 01:51:19;;;;;;;145.00;38.23;;;;;;;13.17;72.15;101214.81;5106752;27;20898;-68
2021/10/02 01:53:48;;;;;;;141.83;38.00;;;;;;;13.15;72.09;101215.81;5114785;27;20448;-68
2021/10/02 01:56:21;;;;;;;140.47;37.30;;;;;;;13.15;71.71;101213.13;5117007;27;20440;-68
2021/10/02 01:58:51;;;;;;;144.20;39.60;;;;;;;13.17;71.38;101212.09;5107983;27;20826;-68
2021/10/02 02:01:23;;;;;;;146.00;39.30;;;;;;;13.31;71.12;101203.88;5101966;28;20452;-67
2021/10/02 02:03:55;;;;;;;146.17;42.23;;;;;;;13.17;71.02;101190.53;5111144;28;20857;-68
2021/10/02 02:06:26;;;;;;;144.10;36.50;;;;;;;13.19;71.34;101210.16;5111501;28;20469;-68
2021/10/02 02:08:56;;;;;;;148.00;42.87;;;;;;;13.01;71.47;101181.75;5110994;28;20444;-68
2021/10/02 02:11:26;;;;;;;150.07;44.47;;;;;;;13.13;71.57;101210.53;5111388;28;20443;-68
2021/10/02 02:13:57;;;;;;;144.47;41.10;;;;;;;13.15;71.29;101208.59;5109820;28;20455;-68
2021/10/02 02:16:27;;;;;;;143.83;43.20;;;;;;;13.08;71.19;101204.59;5111319;28;20456;-68
2021/10/02 02:18:57;;;;;;;149.07;38.47;;;;;;;13.23;70.68;101200.88;5092848;28;20456;-69
2021/10/02 02:21:26;;;;;;;141.40;40.40;;;;;;;13.16;70.96;101199.53;5111089;28;20977;-65
2021/10/02 02:23:56;;;;;;;135.03;40.10;;;;;;;13.00;71.23;101186.28;5110716;28;20447;-65
2021/10/02 02:26:27;;;;;;;147.10;40.93;;;;;;;13.16;70.81;101221.09;5108851;28;20487;-65
2021/10/02 02:28:55;;;;;;;155.53;48.23;;;;;;;13.14;71.29;101209.56;5110616;28;20448;-68
2021/10/02 02:31:23;;;;;;;151.57;44.23;;;;;;;13.14;70.79;101206.88;5109991;28;20453;-68
2021/10/02 02:33:53;;;;;;;151.93;46.17;;;;;;;13.23;70.69;101214.34;5110801;28;20567;-68
2021/10/02 02:36:23;;;;;;;149.00;41.93;;;;;;;13.26;70.57;101206.03;5110897;28;20525;-68
2021/10/02 02:38:51;;;;;;;159.17;42.90;;;;;;;13.18;70.82;101194.94;5110250;28;20455;-68
2021/10/02 02:41:19;;;;;;;163.23;43.60;;;;;;;12.99;71.42;101178.31;5110991;28;20455;-68
2021/10/02 02:43:48;;;;;;;153.50;41.63;;;;;;;13.19;71.24;101202.06;5095907;28;20484;-68
2021/10/02 02:46:22;;;;;;;150.83;38.30;;;;;;;13.19;70.95;101196.69;5110706;28;20819;-68
2021/10/02 02:48:58;;;;;;;160.77;47.93;;;;;;;13.22;71.23;101195.59;5109752;28;20429;-68
2021/10/02 02:51:34;;;;;;;154.20;47.67;;;;;;;13.09;71.81;101198.25;5110439;28;20429;-68
2021/10/02 02:54:11;;;;;;;154.17;44.47;;;;;;;13.10;72.07;101205.38;5110749;28;20451;-68
2021/10/02 02:56:46;;;;;;;160.67;50.67;;;;;;;13.09;72.28;101209.03;5110287;28;20806;-66
2021/10/02 02:59:20;;;;;;;163.97;51.20;;;;;;;13.11;71.87;101196.31;5115598;27;20462;-65
2021/10/02 03:01:51;;;;;;;162.77;50.00;;;;;;;13.10;72.72;101197.28;5109792;28;20448;-65
2021/10/02 03:04:27;;;;;;;161.80;49.20;;;;;;;13.07;72.96;101195.66;5108555;28;20512;-68
2021/10/02 03:06:56;;;;;;;152.90;41.77;;;;;;;13.12;73.54;101195.31;5099991;28;20837;-68
2021/10/02 03:09:25;;;;;;;148.57;41.60;;;;;;;12.95;73.07;101152.53;5110053;28;20650;-67
2021/10/02 03:11:55;;;;;;;142.87;37.47;;;;;;;13.25;72.51;101193.53;5109785;28;20447;-65
2021/10/02 03:14:24;;;;;;;120.00;33.93;;;;;;;13.13;73.49;101188.09;5109746;28;20434;-65
2021/10/02 03:16:55;;;;;;;128.17;34.93;;;;;;;13.16;72.92;101185.19;5109561;28;21138;-65
2021/10/02 03:19:26;;;;;;;158.00;39.40;;;;;;;13.12;73.99;101187.25;5110186;28;20452;-65
2021/10/02 03:21:56;;;;;;;159.70;42.87;;;;;;;13.22;73.60;101176.72;5108553;28;20447;-65
2021/10/02 03:24:25;;;;;;;161.30;43.13;;;;;;;13.15;73.81;101173.53;5109512;28;20988;-65
2021/10/02 03:26:55;;;;;;;161.87;41.97;;;;;;;13.15;73.57;101176.22;5109213;28;20865;-65
2021/10/02 03:29:23;;;;;;;160.17;43.00;;;;;;;13.16;73.99;101172.56;5109801;28;20516;-65
2021/10/02 03:31:52;;;;;;;157.13;43.13;;;;;;;13.18;74.39;101176.06;5109187;28;20550;-65
2021/10/02 03:34:20;;;;;;;164.80;50.20;;;;;;;13.23;74.34;101168.50;5109546;28;20444;-65
2021/10/02 03:36:50;;;;;;;162.03;48.60;;;;;;;13.11;74.45;101180.13;5109658;28;20853;-65
2021/10/02 03:39:19;;;;;;;158.93;47.13;;;;;;;13.03;75.08;101179.81;5099675;28;20453;-65
2021/10/02 03:42:06;;;;;;;147.67;45.57;;;;;;;13.02;75.06;101175.41;5105312;28;20463;-65
2021/10/02 03:44:34;;;;;;;154.40;45.83;;;;;;;12.99;74.94;101175.63;5109706;28;20459;-65
2021/10/02 03:47:03;;;;;;;140.77;43.30;;;;;;;13.07;75.07;101173.22;5109420;28;20479;-65
2021/10/02 03:49:31;;;;;;;164.27;52.50;;;;;;;12.85;74.46;101135.28;5109481;28;20476;-65
2021/10/02 03:52:01;;;;;;;177.13;54.93;;;;;;;13.10;74.45;101173.00;5109098;28;20472;-67
2021/10/02 03:54:29;;;;;;;173.13;49.13;;;;;;;12.87;74.72;101152.22;5107940;28;20448;-67
2021/10/02 03:56:57;;;;;;;175.90;53.13;;;;;;;13.05;74.61;101172.47;5106720;28;20455;-67
2021/10/02 03:59:25;;;;;;;177.87;54.73;;;;;;;13.15;74.09;101178.06;5112032;27;20457;-67
2021/10/02 04:01:54;;;;;;;176.63;51.03;;;;;;;13.18;73.97;101183.31;5108763;28;20451;-67
2021/10/02 04:04:22;;;;;;;179.93;52.03;;;;;;;13.16;73.88;101182.47;5108419;28;20551;-67
2021/10/02 04:06:50;;;;;;;173.80;46.00;;;;;;;13.13;73.67;101163.81;5108446;28;20458;-67
2021/10/02 04:09:21;;;;;;;172.63;46.93;;;;;;;13.21;73.87;101173.16;5108963;28;20561;-67
2021/10/02 04:11:49;;;;;;;176.07;51.03;;;;;;;13.22;73.85;101169.47;5090064;28;20922;-67
2021/10/02 04:14:17;;;;;;;173.47;49.10;;;;;;;13.08;74.01;101172.25;5094631;28;20942;-66
2021/10/02 04:16:45;;;;;;;171.77;44.47;;;;;;;13.06;73.92;101172.38;5109627;28;20478;-65
2021/10/02 04:19:13;;;;;;;174.30;50.27;;;;;;;13.05;74.33;101181.44;5109894;28;20454;-64
2021/10/02 04:21:41;;;;;;;172.63;49.93;;;;;;;13.04;74.56;101184.22;5109810;28;20930;-65
2021/10/02 04:24:10;;;;;;;169.60;45.93;;;;;;;13.02;74.27;101181.66;5109730;28;20492;-65
2021/10/02 04:26:39;;;;;;;167.17;41.93;;;;;;;13.01;74.58;101176.38;5109889;28;20810;-67
2021/10/02 04:29:08;;;;;;;166.13;43.77;;;;;;;12.98;74.38;101181.97;5109910;28;20459;-67
2021/10/02 04:31:36;;;;;;;162.17;40.90;;;;;;;12.99;74.31;101183.69;5108301;28;20513;-65
2021/10/02 04:34:05;;;;;;;159.17;38.13;;;;;;;12.97;74.50;101174.84;5108659;28;20451;-65
2021/10/02 04:36:34;;;;;;;166.93;43.80;;;;;;;12.95;74.61;101172.28;5094490;28;20955;-64
2021/10/02 04:39:03;;;;;;;162.73;38.83;;;;;;;12.95;74.94;101174.09;5095143;28;20452;-67
2021/10/02 04:41:31;;;;;;;169.53;50.37;;;;;;;12.95;74.48;101177.66;5108606;28;20771;-66
2021/10/02 04:44:01;;;;;;;164.53;43.07;;;;;;;12.88;75.77;101168.28;5090096;28;20484;-66
2021/10/02 04:46:29;;;;;;;163.90;43.20;;;;;;;12.85;75.62;101164.91;5107942;28;20457;-68
2021/10/02 04:48:57;;;;;;;162.37;39.80;;;;;;;12.88;75.68;101167.44;5108464;28;20497;-67
2021/10/02 04:51:26;;;;;;;158.40;39.20;;;;;;;12.80;76.20;101167.09;5102680;28;20452;-67
2021/10/02 04:53:54;;;;;;;160.77;40.90;;;;;;;12.81;75.97;101172.38;5101740;28;20433;-64
2021/10/02 04:56:22;;;;;;;160.80;39.27;;;;;;;12.70;76.74;101167.75;5114746;28;20462;-64
2021/10/02 04:58:50;;;;;;;161.37;41.00;;;;;;;12.68;76.48;101167.00;5114415;28;20451;-64
2021/10/02 05:01:20;;;;;;;159.10;38.40;;;;;;;12.60;77.16;101169.38;5100517;28;20482;-65
2021/10/02 05:03:48;;;;;;;161.77;40.90;;;;;;;12.61;77.78;101167.53;5109817;28;20481;-65
2021/10/02 05:06:16;;;;;;;155.37;39.47;;;;;;;12.66;77.04;101163.53;5095280;28;20514;-65
2021/10/02 05:08:45;;;;;;;150.80;38.10;;;;;;;12.70;76.68;101166.88;5092000;28;20464;-65
2021/10/02 05:11:13;;;;;;;156.30;39.83;;;;;;;12.66;77.46;101170.75;5108302;28;20482;-65
2021/10/02 05:13:42;;;;;;;153.20;37.73;;;;;;;12.69;76.72;101165.16;5107969;28;20876;-64
2021/10/02 05:16:10;;;;;;;156.17;38.47;;;;;;;12.73;76.43;101164.81;5108705;28;20452;-64
2021/10/02 05:18:40;;;;;;;154.50;38.80;;;;;;;12.70;77.23;101172.28;5108357;28;20809;-64
2021/10/02 05:21:09;;;;;;;150.53;38.83;;;;;;;12.73;77.20;101172.06;5107385;28;20693;-64
2021/10/02 05:23:37;;;;;;;152.87;38.20;;;;;;;12.79;76.51;101177.00;5107816;28;20487;-65
2021/10/02 05:26:07;;;;;;;154.00;37.57;;;;;;;12.88;76.32;101167.44;5111388;28;20491;-65
2021/10/02 05:28:35;;;;;;;161.17;41.30;;;;;;;12.87;76.71;101169.28;5093453;28;20825;-65
2021/10/02 05:31:04;;;;;;;156.03;37.63;;;;;;;12.90;76.58;101176.28;5109264;28;20820;-65
2021/10/02 05:33:33;;;;;;;159.10;40.07;;;;;;;12.91;77.05;101178.84;5108019;28;20432;-64
2021/10/02 05:36:02;;;;;;;163.20;39.70;;;;;;;12.92;77.22;101180.59;5118210;27;20512;-64
2021/10/02 05:38:30;;;;;;;164.73;40.00;;;;;;;12.92;76.65;101177.88;5119125;27;20486;-65
2021/10/02 05:40:58;;;;;;;164.23;40.87;;;;;;;13.04;77.14;101181.53;5111308;28;20457;-66
2021/10/02 05:43:27;;;;;;;163.40;39.20;;;;;;;12.95;76.78;101177.66;5111261;28;21023;-68
2021/10/02 05:45:55;;;;;;;166.20;42.60;;;;;;;13.04;76.81;101181.53;5111149;28;20451;-68
2021/10/02 05:48:23;;;;;;;168.87;40.67;;;;;;;12.96;76.48;101183.91;5110075;28;20842;-68
2021/10/02 05:50:51;;;;;;;169.03;43.03;;;;;;;13.04;77.07;101189.63;5109677;28;20444;-67
2021/10/02 05:53:21;;;;;;;167.93;41.87;;;;;;;13.06;76.43;101187.69;5122910;27;20439;-68
2021/10/02 05:55:49;;;;;;;165.53;40.47;;;;;;;13.03;76.94;101187.91;5102422;27;20847;-67
2021/10/02 05:58:17;;;;;;;166.23;42.23;;;;;;;13.01;76.83;101165.59;5107938;27;20472;-67
2021/10/02 06:00:45;;;;;;;164.83;40.20;;;;;;;13.20;76.18;101182.22;5119564;27;20987;-68
2021/10/02 06:03:13;;;;;;;165.80;42.43;;;;;;;13.30;76.30;101188.66;5101969;28;20448;-67
2021/10/02 06:05:41;;;;;;;161.53;39.17;;;;;;;13.24;76.08;101189.09;5089273;28;20455;-68
2021/10/02 06:08:09;;;;;;;170.93;48.83;;;;;;;13.18;76.60;101176.06;5110137;28;20809;-68
2021/10/02 06:10:39;;;;;;;168.33;51.00;;;;;;;13.26;76.06;101192.56;5109120;28;20778;-67
2021/10/02 06:13:07;;;;;;;169.87;48.17;;;;;;;13.27;76.08;101196.13;5103115;28;20468;-68
2021/10/02 06:15:35;;;;;;;172.37;51.10;;;;;;;13.30;76.43;101204.84;5106696;28;20452;-67
2021/10/02 06:18:03;;;;;;;169.40;42.37;;;;;;;13.33;76.20;101188.44;5104842;27;20486;-67
2021/10/02 06:20:31;;;;;;;175.77;50.67;;;;;;;13.33;76.50;101192.97;5099071;28;20444;-65
2021/10/02 06:23:03;;;;;;;175.37;53.77;;;;;;;13.40;76.27;101193.38;5104491;28;20447;-65
2021/10/02 06:25:31;;;;;;;174.53;53.07;;;;;;;13.32;76.66;101191.25;5104475;27;20522;-65
2021/10/02 06:28:01;;;;;;;171.80;49.43;;;;;;;13.29;76.32;101197.72;5105404;27;20459;-65
2021/10/02 06:30:29;;;;;;;171.83;50.40;;;;;;;13.42;76.42;101195.00;5103424;28;20440;-65
2021/10/02 06:32:57;;;;;;;168.17;45.73;;;;;;;13.36;76.22;101193.59;5101980;28;20463;-65
2021/10/02 06:35:25;;;;;;;172.33;49.07;;;;;;;13.35;76.55;101197.28;5101446;27;20957;-65
2021/10/02 06:37:53;;;;;;;167.73;41.47;;;;;;;13.40;76.97;101190.69;5106348;28;20455;-65
2021/10/02 06:40:22;;;;;;;177.13;54.27;;;;;;;13.27;76.54;101186.19;5104577;28;20464;-66
2021/10/02 06:42:50;;;;;;;175.93;51.53;;;;;;;13.49;76.44;101190.03;5103551;28;20535;-65
2021/10/02 06:45:20;;;;;;;168.60;41.47;;;;;;;13.40;76.48;101169.97;5101883;28;20486;-67
2021/10/02 06:47:49;;;;;;;173.53;48.17;;;;;;;13.57;75.92;101193.03;5104270;28;20463;-66
2021/10/02 06:50:17;;;;;;;177.10;53.13;;;;;;;13.52;75.98;101174.47;5084972;28;20451;-65
2021/10/02 06:52:45;;;;;;;161.00;48.60;;;;;;;13.65;75.62;101185.22;5101785;28;20856;-70
2021/10/02 06:55:13;;;;;;;165.43;119.33;;;;;;;13.65;75.83;101177.13;5086082;28;20456;-65
2021/10/02 06:57:44;;;;;;;228.23;213.73;;;;;;;13.63;75.65;101188.03;5098709;28;21021;-65
2021/10/02 07:00:13;;;;;;;645.17;369.43;;;;;;;13.60;76.28;101182.88;5104861;28;20450;-67
2021/10/02 07:02:44;;;;;;;475.57;287.23;;;;;;;13.63;75.55;101192.56;5104947;28;20447;-67
2021/10/02 07:05:15;;;;;;;473.73;294.73;;;;;;;13.70;75.99;101188.44;5099733;28;20448;-64
2021/10/02 07:07:43;;;;;;;232.50;218.87;;;;;;;13.72;75.36;101185.63;5103721;28;20810;-64
2021/10/02 07:10:12;;;;;;;180.10;169.10;;;;;;;13.78;75.78;101185.22;5104728;28;20796;-65
2021/10/02 07:12:40;;;;;;;135.03;126.53;;;;;;;13.84;75.82;101187.44;5084457;28;20482;-65
2021/10/02 07:15:09;;;;;;;145.40;136.33;;;;;;;13.88;75.34;101197.03;5103570;28;20427;-66
2021/10/02 07:17:37;;;;;;;439.37;196.83;;;;;;;13.85;75.41;101194.56;5107743;28;20444;-65
2021/10/02 07:20:08;;;;;;;332.43;194.93;;;;;;;13.93;74.88;101201.13;5107043;28;20440;-67
2021/10/02 07:22:38;;;;;;;337.40;191.77;;;;;;;14.03;75.22;101189.63;5105332;28;21021;-65
2021/10/02 07:25:09;;;;;;;102.57;95.97;;;;;;;13.96;75.21;101190.09;5102020;28;20576;-64
2021/10/02 07:27:38;;;;;;;95.93;89.73;;;;;;;13.99;75.32;101194.38;5107397;28;20440;-63
2021/10/02 07:30:08;;;;;;;98.10;91.53;;;;;;;14.02;75.29;101174.38;5104968;28;20499;-64
2021/10/02 07:32:36;;;;;;;94.90;88.87;;;;;;;14.13;75.70;101177.16;5107035;28;20457;-65
2021/10/02 07:35:05;;;;;;;81.90;49.60;;;;;;;13.98;76.22;101182.72;5103827;28;20455;-65
2021/10/02 07:37:35;;;;;;;120.57;38.63;;;;;;;13.63;76.81;101120.56;5105850;28;20450;-65
2021/10/02 07:40:04;;;;;;;118.10;37.30;;;;;;;13.93;76.79;101171.41;5104809;28;20455;-66
2021/10/02 07:42:35;;;;;;;119.37;38.13;;;;;;;13.90;77.56;101168.94;5107438;28;20463;-66
2021/10/02 07:45:07;;;;;;;115.23;37.40;;;;;;;13.97;77.24;101174.75;5104823;28;20479;-66
2021/10/02 07:47:41;;;;;;;120.87;38.23;;;;;;;13.96;77.54;101163.06;5099183;28;20550;-66
2021/10/02 07:50:11;;;;;;;123.07;40.10;;;;;;;13.87;77.08;101177.28;5105684;28;20444;-66
2021/10/02 07:52:41;;;;;;;118.57;39.30;;;;;;;13.90;77.63;101168.94;5106922;28;20821;-66
2021/10/02 07:55:16;;;;;;;123.57;39.30;;;;;;;14.01;77.39;101172.66;5106396;28;20907;-67
2021/10/02 07:57:46;;;;;;;129.33;39.20;;;;;;;13.94;76.94;101162.34;5101564;28;20938;-66
2021/10/02 08:00:16;;;;;;;127.43;37.13;;;;;;;14.06;76.83;101173.19;5104239;28;20860;-66
2021/10/02 08:02:46;;;;;;;124.10;39.03;;;;;;;14.10;77.08;101166.59;5104512;28;20447;-65
2021/10/02 08:05:15;;;;;;;120.87;40.13;;;;;;;14.08;76.85;101165.81;5104277;28;20915;-65
2021/10/02 08:07:47;;;;;;;124.93;40.13;;;;;;;14.08;76.97;101174.81;5101022;28;20522;-65
2021/10/02 08:10:17;;;;;;;125.10;40.13;;;;;;;14.26;76.97;101169.84;5105968;28;20444;-66
2021/10/02 08:12:46;;;;;;;129.30;41.73;;;;;;;14.21;76.41;101172.03;5103071;28;20455;-66
2021/10/02 08:15:14;;;;;;;124.10;39.50;;;;;;;14.06;76.12;101135.38;5106841;28;20442;-66
2021/10/02 08:17:44;;;;;;;126.73;40.63;;;;;;;14.21;75.25;101170.19;5097759;28;20467;-66
2021/10/02 08:20:16;;;;;;;132.90;41.93;;;;;;;14.30;75.28;101169.47;5093056;28;20475;-66
2021/10/02 08:22:48;;;;;;;131.83;41.03;;;;;;;14.32;74.81;101166.66;5098432;28;20448;-66
2021/10/02 08:25:18;;;;;;;129.37;38.53;;;;;;;14.43;74.32;101161.34;5103142;28;20496;-65
2021/10/02 08:27:48;;;;;;;136.13;42.13;;;;;;;14.43;74.28;101169.44;5102632;28;20992;-67
2021/10/02 08:30:19;;;;;;;130.50;34.60;;;;;;;14.29;74.32;101161.50;5105239;28;20444;-66
2021/10/02 08:32:47;;;;;;;130.67;36.50;;;;;;;14.39;74.69;101169.75;5104416;28;20439;-66
2021/10/02 08:35:16;;;;;;;129.63;35.00;;;;;;;14.28;73.85;101167.88;5106846;28;20440;-66
2021/10/02 08:37:44;;;;;;;126.43;33.40;;;;;;;14.32;74.46;101166.66;5093949;28;20452;-65
2021/10/02 08:40:17;;;;;;;128.43;34.60;;;;;;;14.47;73.72;101156.56;5096752;28;20456;-66
2021/10/02 08:42:47;;;;;;;127.27;36.20;;;;;;;14.52;73.70;101167.88;5101279;28;20448;-66
2021/10/02 08:45:15;;;;;;;125.33;33.53;;;;;;;14.40;72.83;101164.25;5105849;28;21038;-67
2021/10/02 08:47:47;;;;;;;118.17;32.83;;;;;;;14.51;74.23;101161.59;5097882;28;20802;-66
2021/10/02 08:50:19;;;;;;;113.63;33.17;;;;;;;14.49;73.66;101155.47;5102469;28;20963;-66
2021/10/02 08:52:48;;;;;;;109.77;32.83;;;;;;;14.55;73.44;101152.28;5099755;28;20802;-66
2021/10/02 08:55:18;;;;;;;115.63;36.23;;;;;;;14.75;73.14;101160.69;5106390;28;21244;-67
2021/10/02 08:57:49;;;;;;;119.13;34.67;;;;;;;14.72;72.03;101150.97;5099631;28;20494;-65
2021/10/02 09:00:21;;;;;;;115.47;33.87;;;;;;;14.64;72.07;101152.53;5106293;28;21238;-66
2021/10/02 09:02:50;;;;;;;117.13;32.37;;;;;;;14.86;71.57;101149.88;5093483;28;20459;-66
2021/10/02 09:05:20;;;;;;;113.70;32.53;;;;;;;14.82;71.55;101151.09;5093177;28;20527;-66
2021/10/02 09:07:50;;;;;;;115.10;33.33;;;;;;;14.87;70.81;101157.00;5093749;28;20460;-66
2021/10/02 09:10:20;;;;;;;112.87;32.33;;;;;;;14.95;71.43;101142.84;5097418;28;20958;-66
2021/10/02 09:12:49;;;;;;;113.77;33.27;;;;;;;14.83;70.63;101153.66;5106786;28;20444;-65
2021/10/02 09:15:18;;;;;;;112.33;32.23;;;;;;;14.80;71.34;101153.91;5103475;28;21256;-65
2021/10/02 09:17:47;;;;;;;113.90;32.60;;;;;;;14.92;70.86;101146.66;5104950;28;20464;-65
2021/10/02 09:20:16;;;;;;;119.03;34.03;;;;;;;14.83;70.73;101152.81;5103652;28;20704;-65
2021/10/02 09:22:59;;;;;;;115.90;32.80;;;;;;;14.79;70.79;101154.91;5109714;28;20448;-65
2021/10/02 09:25:31;;;;;;;114.17;31.93;;;;;;;14.72;70.32;101145.56;5101157;28;21008;-65
2021/10/02 09:28:10;;;;;;;113.63;32.37;;;;;;;14.87;70.48;101151.59;5099162;27;20464;-65
2021/10/02 09:30:41;;;;;;;113.67;32.50;;;;;;;14.88;70.64;101140.63;5111254;27;20443;-66
2021/10/02 09:33:12;;;;;;;116.67;33.63;;;;;;;14.92;70.60;101146.66;5102936;27;20463;-66
2021/10/02 09:35:41;;;;;;;125.73;35.23;;;;;;;14.91;70.43;101148.50;5096438;27;20460;-66
2021/10/02 09:38:12;;;;;;;126.67;34.63;;;;;;;14.90;70.03;101135.09;5096364;28;20449;-66
2021/10/02 09:40:49;;;;;;;118.90;33.43;;;;;;;15.01;69.84;101140.53;5110635;27;20452;-65
2021/10/02 09:43:17;;;;;;;118.60;33.20;;;;;;;15.06;69.11;101169.94;5122072;27;20443;-66
2021/10/02 09:45:48;;;;;;;127.60;34.93;;;;;;;14.90;69.02;101137.81;5098161;27;20472;-66
2021/10/02 09:48:24;;;;;;;130.40;35.67;;;;;;;15.04;69.17;101143.00;5103988;28;20449;-66
2021/10/02 09:50:53;;;;;;;131.63;35.47;;;;;;;15.29;69.61;101146.41;5094036;28;20436;-66
2021/10/02 09:53:21;;;;;;;130.97;35.67;;;;;;;15.20;68.63;101134.50;5111882;27;20456;-66
2021/10/02 09:55:53;;;;;;;131.27;36.17;;;;;;;15.30;68.55;101140.00;5103473;27;20724;-66
2021/10/02 09:58:34;;;;;;;130.67;36.13;;;;;;;15.36;67.66;101136.84;5117581;27;20792;-67
2021/10/02 10:01:04;;;;;;;122.47;33.33;;;;;;;15.25;67.91;101137.69;5101410;28;20444;-66
2021/10/02 10:03:43;;;;;;;119.80;33.50;;;;;;;15.17;68.35;101138.31;5120198;27;20486;-66
2021/10/02 10:06:21;;;;;;;122.73;34.07;;;;;;;15.07;68.74;101129.22;5107707;27;20478;-66
2021/10/02 10:09:05;;;;;;;126.23;35.50;;;;;;;15.10;68.72;101110.03;5102141;27;20467;-66
2021/10/02 10:11:46;;;;;;;130.13;35.20;;;;;;;15.06;68.88;101132.06;5103389;28;20467;-67
2021/10/02 10:14:22;;;;;;;150.00;38.83;;;;;;;15.03;69.90;101135.88;5109245;27;20463;-65
2021/10/02 10:16:50;;;;;;;159.90;40.43;;;;;;;15.03;70.16;101138.56;5092591;28;20451;-66
2021/10/02 10:19:20;;;;;;;157.13;40.37;;;;;;;15.11;70.15;101127.13;5097608;27;20896;-65
2021/10/02 10:22:09;;;;;;;162.70;40.73;;;;;;;15.08;69.99;101133.66;5114189;27;20786;-66
2021/10/02 10:24:38;;;;;;;164.57;40.07;;;;;;;15.11;69.78;101136.09;5107998;27;20475;-65
2021/10/02 10:27:09;;;;;;;167.00;42.30;;;;;;;15.00;70.25;101117.19;5102287;27;20490;-65
2021/10/02 10:29:43;;;;;;;163.97;41.60;;;;;;;15.10;70.17;101123.56;5109192;27;20444;-65
2021/10/02 10:32:12;;;;;;;161.40;42.17;;;;;;;15.18;69.81;101126.50;5109716;28;20970;-66
2021/10/02 10:34:42;;;;;;;166.10;48.30;;;;;;;15.10;70.37;101123.56;5111093;27;20477;-66
2021/10/02 10:37:12;;;;;;;161.87;42.77;;;;;;;15.07;70.79;101109.44;5103727;27;20471;-66
2021/10/02 10:39:41;;;;;;;154.90;39.03;;;;;;;14.78;70.89;101073.91;5079468;28;20981;-66
2021/10/02 10:42:11;;;;;;;153.53;38.80;;;;;;;15.06;70.59;101115.81;5097274;28;20912;-66
2021/10/02 10:44:39;;;;;;;162.53;43.47;;;;;;;15.21;70.50;101128.09;5101315;27;20455;-66
2021/10/02 10:47:08;;;;;;;160.50;40.53;;;;;;;15.14;70.80;101125.03;5101636;28;20567;-66
2021/10/02 10:49:37;;;;;;;159.97;40.43;;;;;;;15.05;71.39;101125.78;5096659;27;20492;-67
2021/10/02 10:52:17;;;;;;;157.83;40.90;;;;;;;15.01;71.23;101110.78;5106505;27;20555;-67
2021/10/02 10:54:52;;;;;;;159.03;40.70;;;;;;;14.96;71.43;101109.41;5084668;28;20460;-65
2021/10/02 10:57:38;;;;;;;158.13;42.03;;;;;;;14.91;71.74;101107.94;5104393;28;20943;-65
2021/10/02 11:00:11;;;;;;;150.13;40.10;;;;;;;14.65;72.16;101071.31;5102445;28;20562;-65
2021/10/02 11:02:51;;;;;;;147.50;39.20;;;;;;;14.88;71.44;101113.59;5101944;27;20568;-65
2021/10/02 11:05:50;;;;;;;146.33;38.20;;;;;;;14.84;71.93;101105.84;5099369;27;20463;-65
2021/10/02 11:08:23;;;;;;;145.00;38.27;;;;;;;14.77;72.37;101104.63;5107326;28;20479;-65
2021/10/02 11:10:54;;;;;;;145.17;38.37;;;;;;;14.75;72.20;101093.94;5108595;28;20444;-65
2021/10/02 11:13:57;;;;;;;143.23;36.90;;;;;;;14.81;72.47;101098.00;5104482;27;20469;-65
2021/10/02 11:16:38;;;;;;;143.67;37.03;;;;;;;14.69;72.57;101094.41;5094349;28;21408;-65
2021/10/02 11:19:32;;;;;;;144.43;37.60;;;;;;;14.72;72.54;101099.59;5098935;28;20492;-67
2021/10/02 11:22:04;;;;;;;144.43;37.10;;;;;;;14.63;72.34;101102.16;5102826;27;20831;-67
2021/10/02 11:24:40;;;;;;;146.40;38.40;;;;;;;14.80;72.34;101104.38;5103281;28;21069;-66
2021/10/02 11:27:21;;;;;;;147.53;37.37;;;;;;;14.72;72.64;101069.84;5099811;28;20482;-67
2021/10/02 11:29:52;;;;;;;147.47;38.23;;;;;;;14.88;71.89;101096.50;5088613;28;20455;-67
2021/10/02 11:32:26;;;;;;;146.17;38.30;;;;;;;14.81;71.65;101100.69;5116866;27;20495;-68
2021/10/02 11:35:30;;;;;;;146.00;38.97;;;;;;;14.92;72.18;101081.75;5110991;27;20443;-67
2021/10/02 11:38:05;;;;;;;141.27;36.43;;;;;;;14.87;71.78;101082.13;5106334;27;20907;-67
2021/10/02 11:40:47;;;;;;;141.83;38.13;;;;;;;14.80;71.12;101061.97;5109537;27;20455;-67
2021/10/02 11:43:27;;;;;;;146.07;37.97;;;;;;;14.80;71.29;101075.50;5108066;27;20544;-67
2021/10/02 11:46:06;;;;;;;145.17;38.23;;;;;;;14.75;71.42;101074.16;5113406;27;20439;-66
2021/10/02 11:48:52;;;;;;;141.80;36.37;;;;;;;14.79;71.73;101071.06;5108571;27;20488;-66
2021/10/02 11:51:24;;;;;;;98.53;30.60;;;;;;;15.02;71.08;101069.22;5096728;27;20452;-67
2021/10/02 11:53:54;;;;;;;96.13;35.50;;;;;;;14.97;70.97;101067.84;5107661;27;20222;-68
2021/10/02 11:56:24;;;;;;;93.00;31.23;;;;;;;14.93;70.82;101067.25;5106362;27;20468;-67
2021/10/02 11:58:55;;;;;;;79.07;30.17;;;;;;;15.01;70.17;101070.22;5112010;27;20199;-67
2021/10/02 12:01:27;;;;;;;49.43;24.00;;;;;;;14.95;70.72;101080.66;5102785;28;20314;-67
2021/10/02 12:04:01;;;;;;;59.63;25.57;;;;;;;14.75;71.07;101064.19;5115644;27;20206;-67
2021/10/02 12:06:29;;;;;;;51.23;24.17;;;;;;;14.69;70.76;101058.41;5111959;27;20198;-67
2021/10/02 12:08:58;;;;;;;70.37;28.30;;;;;;;14.81;70.69;101065.53;5106180;27;20206;-66